logo
Rechercher aéroport 
image banner adimage banner adimage banner ad
image banner ad

SQCI - El Cairo

Situé à , Colombia

ICAO - , IATA -

Données fournies par Airmate  

Information générale

Coordonnées: N6°3'53" W71°12'16"
Élévation : 464 feet MSL.
Variation magnétique : -10° East
Voir autres Aéroports à Casanare

Données opérationnelles

Special qualification required
Heure actuelle UTC:
Heure actuelle locale:
Météo à : - ( 0 km )
METAR: ZMUB 251600Z 33004MPS 9999 FEW030CB BKN033 15/12 Q1009 NOSIG RMK QFE650.5 82 NT
Voir NOTAMs / SUP AIP / TFR affectant cet aéroport [VIEW]
Fréquences de communication: [VIEW]

Pistes:

Identifiant RWYQFULongueur (ft)Largeur (ft)SurfaceLDA (ft)
27265°3302140GRAS
0985°3302140GRAS

Coordonnées de l'aéroport

Adresse: Colombia

Vue satellite de SQCI